Time;durP1;ratioP1;P1;durP2;ratioP2;P2;SDS_P1;SDS_P2;PMS_P1;PMS_P2;Temp;Humidity;BMP_temperature;BMP_pressure;BME280_temperature;BME280_humidity;BME280_pressure;Samples;Min_cycle;Max_cycle;Signal;HPM_P1;HPM_P2
2023/06/20 00:01:49;;;;;;;11.52;10.43;;;21.40;85.70;;;;;;5054684;28;20158;-80
2023/06/20 00:04:15;;;;;;;11.50;10.32;;;21.50;85.70;;;;;;5054638;28;20150;-83
2023/06/20 00:06:41;;;;;;;11.82;10.63;;;21.50;85.60;;;;;;5036655;28;20601;-81
2023/06/20 00:09:06;;;;;;;12.23;10.98;;;21.50;85.70;;;;;;5020579;28;20173;-82
2023/06/20 00:11:32;;;;;;;11.60;10.40;;;21.50;85.70;;;;;;5054785;28;20166;-83
2023/06/20 00:13:58;;;;;;;11.40;10.23;;;21.50;85.70;;;;;;5036545;28;20159;-83
2023/06/20 00:16:24;;;;;;;11.75;10.63;;;21.50;85.40;;;;;;5054423;28;20469;-82
2023/06/20 00:18:53;;;;;;;12.32;10.82;;;21.50;85.30;;;;;;5036730;28;20267;-82
2023/06/20 00:21:21;;;;;;;11.40;10.30;;;21.50;85.40;;;;;;5036413;28;20538;-83
2023/06/20 00:23:47;;;;;;;12.43;11.13;;;21.50;85.50;;;;;;5036610;28;20549;-84
2023/06/20 00:26:13;;;;;;;11.82;10.63;;;21.40;85.40;;;;;;5054114;28;20154;-81
2023/06/20 00:28:39;;;;;;;12.00;10.77;;;21.50;85.40;;;;;;5037302;28;20475;-82
2023/06/20 00:31:05;;;;;;;12.05;10.85;;;21.50;85.40;;;;;;5054422;28;20158;-82
2023/06/20 00:33:36;;;;;;;12.25;10.88;;;21.50;85.40;;;;;;5036455;28;20158;-83
2023/06/20 00:36:03;;;;;;;12.68;10.82;;;21.50;85.30;;;;;;5036854;28;20182;-81
2023/06/20 00:38:29;;;;;;;11.55;10.35;;;21.50;85.30;;;;;;5054293;28;20180;-82
2023/06/20 00:40:55;;;;;;;12.15;10.88;;;21.50;85.20;;;;;;5035544;28;20162;-82
2023/06/20 00:43:21;;;;;;;12.27;10.98;;;21.40;85.20;;;;;;5019458;28;20216;-83
2023/06/20 00:45:47;;;;;;;12.02;10.82;;;21.50;85.30;;;;;;5020157;28;20211;-84
2023/06/20 00:48:13;;;;;;;11.80;10.60;;;21.50;85.30;;;;;;5033737;28;20791;-84
2023/06/20 00:50:39;;;;;;;12.07;10.77;;;21.50;85.30;;;;;;5053749;28;20173;-83
2023/06/20 00:53:05;;;;;;;10.80;9.70;;;21.50;85.30;;;;;;5053711;28;20237;-81
2023/06/20 00:55:33;;;;;;;12.07;10.85;;;21.50;85.20;;;;;;5019615;28;20648;-82
2023/06/20 00:58:00;;;;;;;12.00;10.68;;;21.50;85.20;;;;;;5036464;28;20540;-82
2023/06/20 01:00:27;;;;;;;11.88;10.73;;;21.50;85.20;;;;;;5053503;28;20151;-83
2023/06/20 01:03:01;;;;;;;12.13;10.93;;;21.40;84.90;;;;;;5019208;28;20166;-83
2023/06/20 01:05:28;;;;;;;12.55;11.00;;;21.50;85.10;;;;;;5036265;28;20204;-81
2023/06/20 01:08:02;;;;;;;11.98;10.77;;;21.50;85.10;;;;;;5019670;28;20174;-83
2023/06/20 01:11:03;;;;;;;12.07;10.85;;;21.50;85.30;;;;;;5035920;28;20169;-83
2023/06/20 01:13:53;;;;;;;11.75;10.55;;;21.50;85.20;;;;;;5038807;28;20170;-80
2023/06/20 01:16:28;;;;;;;12.32;11.02;;;21.50;85.10;;;;;;5022310;28;20197;-86
2023/06/20 01:19:12;;;;;;;11.55;10.45;;;21.50;85.30;;;;;;5053435;28;20149;-81
2023/06/20 01:21:42;;;;;;;12.32;11.02;;;21.50;85.20;;;;;;5035615;28;20170;-82
2023/06/20 01:24:19;;;;;;;12.35;11.05;;;21.40;85.20;;;;;;5053292;28;20161;-82
2023/06/20 01:26:56;;;;;;;11.70;10.50;;;21.50;85.10;;;;;;5018973;28;20235;-82
2023/06/20 01:29:32;;;;;;;12.05;10.85;;;21.40;85.10;;;;;;5053552;28;20157;-83
2023/06/20 01:31:59;;;;;;;11.52;10.32;;;21.40;85.00;;;;;;5035942;28;20158;-84
2023/06/20 01:34:27;;;;;;;12.15;10.80;;;21.50;85.30;;;;;;5018747;28;20202;-80
2023/06/20 01:36:57;;;;;;;12.15;10.48;;;21.50;85.20;;;;;;5035532;28;20150;-80
2023/06/20 01:39:28;;;;;;;11.55;10.48;;;21.50;85.20;;;;;;5035343;28;20502;-81
2023/06/20 01:41:56;;;;;;;11.93;10.73;;;21.50;85.20;;;;;;5035423;28;20150;-79
2023/06/20 01:44:22;;;;;;;12.15;10.88;;;21.40;84.90;;;;;;5035759;28;20203;-82
2023/06/20 01:46:48;;;;;;;12.27;11.07;;;21.50;84.90;;;;;;5035034;28;20154;-80
2023/06/20 01:49:15;;;;;;;11.90;10.70;;;21.40;84.90;;;;;;5035455;28;20162;-82
2023/06/20 01:51:41;;;;;;;11.63;10.50;;;21.50;85.00;;;;;;5035146;28;20158;-81
2023/06/20 01:54:07;;;;;;;11.93;10.73;;;21.40;84.90;;;;;;5038558;28;20193;-80
2023/06/20 01:56:33;;;;;;;11.55;10.38;;;21.40;84.90;;;;;;5022661;28;20534;-80
2023/06/20 01:59:00;;;;;;;11.32;10.18;;;21.40;85.00;;;;;;5039164;28;20147;-80
2023/06/20 02:01:26;;;;;;;12.40;11.13;;;21.40;85.00;;;;;;5057344;28;20165;-83
2023/06/20 02:03:53;;;;;;;11.50;10.30;;;21.40;84.90;;;;;;5039284;28;20233;-82
2023/06/20 02:06:20;;;;;;;11.57;10.38;;;21.40;85.00;;;;;;5039066;28;20157;-81
2023/06/20 02:08:46;;;;;;;12.35;11.05;;;21.50;85.00;;;;;;5039049;28;20166;-81
2023/06/20 02:11:12;;;;;;;11.93;10.73;;;21.40;84.90;;;;;;5038863;28;20165;-81
2023/06/20 02:13:38;;;;;;;11.63;10.52;;;21.50;84.90;;;;;;5038737;28;20269;-84
2023/06/20 02:16:08;;;;;;;12.00;10.80;;;21.50;84.90;;;;;;5022092;28;20228;-80
2023/06/20 02:18:34;;;;;;;11.77;10.57;;;21.40;84.80;;;;;;5038568;28;20609;-84
2023/06/20 02:21:06;;;;;;;12.30;11.00;;;21.40;84.90;;;;;;5022704;28;20219;-80
2023/06/20 02:23:33;;;;;;;12.07;10.85;;;21.40;84.60;;;;;;5038626;28;20194;-83
2023/06/20 02:26:07;;;;;;;11.70;10.50;;;21.40;84.70;;;;;;5038661;28;20150;-81
2023/06/20 02:28:33;;;;;;;11.88;10.68;;;21.50;84.80;;;;;;5039106;28;20162;-81
2023/06/20 02:30:59;;;;;;;11.93;10.73;;;21.40;84.80;;;;;;5038605;28;20163;-82
2023/06/20 02:33:25;;;;;;;12.07;10.80;;;21.40;84.80;;;;;;5038494;28;20162;-84
2023/06/20 02:35:51;;;;;;;11.85;10.65;;;21.40;84.70;;;;;;5038466;28;20262;-80
2023/06/20 02:38:17;;;;;;;12.07;10.85;;;21.40;84.80;;;;;;5038358;28;20174;-82
2023/06/20 02:40:43;;;;;;;11.93;10.50;;;21.40;84.80;;;;;;5038349;28;20208;-82
2023/06/20 02:43:09;;;;;;;12.27;11.07;;;21.50;84.50;;;;;;5021823;28;20169;-83
2023/06/20 02:45:36;;;;;;;11.82;10.63;;;21.40;85.30;;;;;;5038259;28;20224;-82
2023/06/20 02:48:10;;;;;;;12.27;11.07;;;21.40;84.80;;;;;;5037579;28;20221;-81
2023/06/20 02:50:41;;;;;;;11.90;10.70;;;21.40;84.50;;;;;;5037675;28;20522;-83
2023/06/20 02:53:19;;;;;;;12.45;11.15;;;21.50;84.60;;;;;;5036838;28;20184;-83
2023/06/20 02:55:48;;;;;;;12.00;10.80;;;21.40;84.70;;;;;;5037138;28;20194;-81
2023/06/20 02:58:15;;;;;;;12.10;10.90;;;21.40;84.70;;;;;;5037110;28;20151;-81
2023/06/20 03:00:43;;;;;;;11.60;10.40;;;21.40;84.50;;;;;;5036780;28;20158;-80
2023/06/20 03:03:12;;;;;;;12.13;10.80;;;21.40;84.70;;;;;;5054480;28;20589;-83
2023/06/20 03:05:39;;;;;;;11.50;10.35;;;21.40;84.60;;;;;;5037104;28;20165;-84
2023/06/20 03:08:05;;;;;;;12.07;10.88;;;21.40;84.60;;;;;;5036683;28;20172;-80
2023/06/20 03:10:31;;;;;;;11.80;10.60;;;21.40;84.50;;;;;;5054452;28;20261;-83
2023/06/20 03:12:59;;;;;;;11.13;9.95;;;21.40;84.70;;;;;;5020414;28;20184;-82
2023/06/20 03:15:26;;;;;;;11.77;10.57;;;21.40;84.70;;;;;;5036740;28;20521;-82
2023/06/20 03:17:52;;;;;;;11.60;10.50;;;21.30;84.50;;;;;;5054405;28;20640;-82
2023/06/20 03:20:18;;;;;;;12.18;10.98;;;21.40;84.50;;;;;;5036629;28;20184;-83
2023/06/20 03:22:44;;;;;;;12.18;10.98;;;21.40;84.50;;;;;;5020232;28;20529;-79
2023/06/20 03:25:10;;;;;;;12.07;10.73;;;21.40;84.70;;;;;;5054404;28;20165;-80
2023/06/20 03:27:36;;;;;;;12.23;10.93;;;21.40;84.70;;;;;;5036273;28;20165;-82
2023/06/20 03:30:03;;;;;;;12.30;11.00;;;21.40;84.70;;;;;;5019803;28;20235;-84
2023/06/20 03:32:29;;;;;;;11.20;10.07;;;21.40;84.50;;;;;;5036616;28;20543;-83
2023/06/20 03:34:55;;;;;;;11.85;10.65;;;21.40;84.40;;;;;;5036321;28;20189;-81
2023/06/20 03:37:21;;;;;;;11.65;10.45;;;21.40;84.40;;;;;;5036282;28;20159;-81
2023/06/20 03:39:47;;;;;;;11.82;10.43;;;21.40;84.50;;;;;;5036444;28;20613;-83
2023/06/20 03:42:13;;;;;;;11.82;10.63;;;21.40;84.30;;;;;;5036441;28;20181;-82
2023/06/20 03:44:39;;;;;;;11.27;10.18;;;21.40;84.40;;;;;;5036163;28;20625;-81
2023/06/20 03:47:05;;;;;;;12.20;10.75;;;21.40;84.50;;;;;;4976658;28;1242825;-83
2023/06/20 03:49:31;;;;;;;11.05;9.95;;;21.40;84.30;;;;;;5037136;28;20624;-85
2023/06/20 03:51:56;;;;;;;11.88;10.68;;;21.40;84.40;;;;;;5055099;28;20523;-80
2023/06/20 03:54:22;;;;;;;12.32;11.07;;;21.40;84.40;;;;;;5054997;28;20197;-81
2023/06/20 03:56:49;;;;;;;12.00;10.70;;;21.40;84.30;;;;;;5020464;28;20633;-81
2023/06/20 03:59:14;;;;;;;12.05;10.85;;;21.40;84.30;;;;;;5037300;28;20229;-81
2023/06/20 04:01:41;;;;;;;11.35;10.25;;;21.40;84.40;;;;;;5036783;28;20284;-80
2023/06/20 04:04:06;;;;;;;11.75;10.55;;;21.40;84.10;;;;;;5020983;28;20273;-79
2023/06/20 04:06:32;;;;;;;11.43;10.23;;;21.40;84.20;;;;;;5036787;28;20640;-82
2023/06/20 04:08:58;;;;;;;11.90;10.70;;;21.40;84.10;;;;;;5054534;28;20562;-83
2023/06/20 04:11:24;;;;;;;11.48;10.32;;;21.40;84.30;;;;;;5020258;28;20240;-83
2023/06/20 04:13:51;;;;;;;11.88;10.68;;;21.40;84.30;;;;;;5036762;28;20162;-80
2023/06/20 04:16:16;;;;;;;11.93;10.73;;;21.40;84.30;;;;;;5035762;28;20170;-81
2023/06/20 04:18:42;;;;;;;11.77;10.57;;;21.40;84.30;;;;;;5036513;28;20158;-83
2023/06/20 04:21:08;;;;;;;11.63;10.43;;;21.40;84.30;;;;;;5036519;28;20177;-83
2023/06/20 04:23:34;;;;;;;12.13;10.95;;;21.40;84.10;;;;;;5019915;28;20625;-82
2023/06/20 04:26:01;;;;;;;11.18;10.07;;;21.40;84.30;;;;;;5020409;28;20692;-80
2023/06/20 04:28:27;;;;;;;12.65;11.35;;;21.40;84.20;;;;;;5036722;28;20154;-85
2023/06/20 04:30:55;;;;;;;11.25;10.15;;;21.40;84.20;;;;;;5036603;28;20237;-83
2023/06/20 04:33:22;;;;;;;11.70;10.55;;;21.40;84.10;;;;;;5054105;28;20211;-83
2023/06/20 04:35:48;;;;;;;11.30;10.20;;;21.30;84.20;;;;;;5053971;28;20660;-83
2023/06/20 04:38:14;;;;;;;11.70;10.50;;;21.40;84.10;;;;;;5036096;28;20212;-82
2023/06/20 04:40:41;;;;;;;12.32;11.05;;;21.30;84.10;;;;;;5054386;28;20161;-84
2023/06/20 04:43:07;;;;;;;11.93;10.73;;;21.40;84.10;;;;;;5019799;28;20201;-83
2023/06/20 04:45:33;;;;;;;11.95;10.75;;;21.40;84.20;;;;;;5036021;28;20686;-81
2023/06/20 04:47:59;;;;;;;11.43;10.23;;;21.40;84.20;;;;;;5019397;28;20226;-81
2023/06/20 04:50:26;;;;;;;11.75;10.50;;;21.30;84.10;;;;;;5019757;28;20268;-83
2023/06/20 04:52:52;;;;;;;11.68;10.48;;;21.40;84.10;;;;;;5019662;28;20180;-83
2023/06/20 04:55:20;;;;;;;12.60;11.30;;;21.40;84.00;;;;;;5053747;28;20710;-83
2023/06/20 04:57:47;;;;;;;11.60;10.40;;;21.40;84.10;;;;;;5036216;28;20157;-83
2023/06/20 05:00:15;;;;;;;11.77;10.57;;;21.40;84.00;;;;;;5036101;28;20158;-84
2023/06/20 05:02:42;;;;;;;12.30;11.00;;;21.40;84.00;;;;;;5036127;28;20155;-84
2023/06/20 05:05:09;;;;;;;12.07;10.88;;;21.40;84.00;;;;;;5053456;28;20204;-82
2023/06/20 05:07:35;;;;;;;11.50;10.30;;;21.40;84.00;;;;;;5035699;28;20162;-79
2023/06/20 05:10:01;;;;;;;11.90;10.70;;;21.40;83.90;;;;;;5054019;28;20608;-80
2023/06/20 05:12:27;;;;;;;11.73;10.50;;;21.40;83.90;;;;;;5019706;28;20174;-81
2023/06/20 05:14:52;;;;;;;12.60;11.32;;;21.30;83.90;;;;;;5035275;28;20663;-82
2023/06/20 05:17:18;;;;;;;11.40;10.20;;;21.40;84.00;;;;;;5053337;28;20159;-83
2023/06/20 05:19:44;;;;;;;12.43;11.10;;;21.30;83.90;;;;;;5036036;28;20624;-81
2023/06/20 05:22:10;;;;;;;11.05;10.05;;;21.30;83.90;;;;;;5036211;28;20198;-83
2023/06/20 05:24:36;;;;;;;11.68;10.48;;;21.30;83.90;;;;;;5035467;28;20640;-81
2023/06/20 05:27:02;;;;;;;11.48;10.35;;;21.40;84.00;;;;;;5053068;28;20158;-80
2023/06/20 05:29:28;;;;;;;11.82;10.63;;;21.30;83.90;;;;;;5019187;28;20170;-81
2023/06/20 05:31:54;;;;;;;11.65;10.52;;;21.30;83.90;;;;;;5035378;28;20511;-82
2023/06/20 05:34:21;;;;;;;11.93;10.68;;;21.30;83.80;;;;;;5035663;28;20271;-79
2023/06/20 05:36:47;;;;;;;10.80;9.70;;;21.40;83.80;;;;;;5053198;28;20680;-81
2023/06/20 05:39:13;;;;;;;10.18;9.13;;;21.30;83.50;;;;;;5035393;28;20563;-82
2023/06/20 05:41:41;;;;;;;10.93;9.85;;;21.40;82.90;;;;;;5036124;28;20162;-82
2023/06/20 05:44:07;;;;;;;10.77;9.77;;;21.40;82.70;;;;;;5053171;28;20245;-83
2023/06/20 05:46:33;;;;;;;10.25;9.25;;;21.40;82.60;;;;;;5035990;28;20197;-82
2023/06/20 05:48:59;;;;;;;9.77;8.88;;;21.30;82.70;;;;;;5035170;28;20688;-84
2023/06/20 05:51:29;;;;;;;10.05;9.05;;;21.30;82.70;;;;;;5052927;28;20155;-81
2023/06/20 05:53:57;;;;;;;9.68;8.65;;;21.30;82.90;;;;;;5035522;28;20154;-83
2023/06/20 05:56:23;;;;;;;10.15;9.15;;;21.30;82.70;;;;;;5035650;28;20150;-83
2023/06/20 05:58:49;;;;;;;10.02;9.02;;;21.20;82.80;;;;;;5035156;28;20617;-83
2023/06/20 06:01:16;;;;;;;9.63;8.73;;;21.10;82.70;;;;;;5035052;28;20158;-81
2023/06/20 06:03:42;;;;;;;9.35;8.45;;;21.20;82.70;;;;;;5019503;28;20170;-84
2023/06/20 06:06:09;;;;;;;9.60;8.63;;;21.20;82.70;;;;;;5034935;28;20166;-82
2023/06/20 06:08:35;;;;;;;9.55;8.55;;;21.20;82.50;;;;;;5035069;28;20181;-84
2023/06/20 06:11:01;;;;;;;9.25;8.35;;;21.20;82.50;;;;;;5052748;28;20173;-82
2023/06/20 06:13:28;;;;;;;9.40;8.50;;;21.30;82.50;;;;;;5034876;28;20170;-83
2023/06/20 06:15:54;;;;;;;9.00;8.10;;;21.30;82.30;;;;;;5035205;28;20182;-85
2023/06/20 06:18:20;;;;;;;9.85;8.85;;;21.30;82.10;;;;;;5052700;28;20241;-82
2023/06/20 06:20:46;;;;;;;8.52;7.72;;;21.30;81.90;;;;;;5053265;28;20189;-82
2023/06/20 06:23:12;;;;;;;9.18;8.27;;;21.40;81.60;;;;;;5052915;28;20165;-82
2023/06/20 06:25:38;;;;;;;8.65;7.85;;;21.40;81.40;;;;;;5018386;28;20166;-82
2023/06/20 06:28:03;;;;;;;9.60;8.60;;;21.40;81.00;;;;;;5018247;28;20261;-82
2023/06/20 06:30:32;;;;;;;8.80;8.00;;;21.40;81.20;;;;;;5052766;28;20190;-82
2023/06/20 06:32:58;;;;;;;9.57;8.68;;;21.40;80.80;;;;;;5052615;28;20150;-81
2023/06/20 06:35:24;;;;;;;9.20;8.30;;;21.50;80.70;;;;;;5018689;28;20203;-82
2023/06/20 06:37:52;;;;;;;8.65;7.85;;;21.40;80.30;;;;;;5052473;28;20158;-82
2023/06/20 06:40:20;;;;;;;8.98;8.07;;;21.50;80.20;;;;;;5038480;28;20628;-82
2023/06/20 06:42:46;;;;;;;8.35;7.55;;;21.50;79.90;;;;;;5056242;28;20150;-84
2023/06/20 06:45:11;;;;;;;9.80;8.85;;;21.60;79.60;;;;;;5021627;28;20253;-83
2023/06/20 06:47:43;;;;;;;9.63;8.63;;;21.50;80.70;;;;;;5021859;28;20581;-87
2023/06/20 06:50:09;;;;;;;8.40;7.60;;;21.50;80.30;;;;;;5023851;28;20169;-83
2023/06/20 06:52:35;;;;;;;9.05;8.15;;;21.50;79.60;;;;;;5055848;28;20164;-82
2023/06/20 06:55:01;;;;;;;9.20;8.30;;;21.60;79.70;;;;;;5056053;28;20186;-84
2023/06/20 06:57:27;;;;;;;8.43;7.63;;;21.60;79.60;;;;;;5038879;28;20158;-82
2023/06/20 06:59:53;;;;;;;9.07;8.18;;;21.60;79.40;;;;;;5056463;28;20623;-83
2023/06/20 07:02:19;;;;;;;8.77;7.97;;;21.60;79.20;;;;;;5038812;28;20515;-81
2023/06/20 07:04:45;;;;;;;9.18;8.23;;;21.60;78.80;;;;;;5021989;28;20600;-80
2023/06/20 07:07:11;;;;;;;9.13;8.23;;;21.60;78.90;;;;;;5038303;28;20177;-84
2023/06/20 07:09:37;;;;;;;9.05;8.15;;;21.60;78.90;;;;;;5056710;28;20154;-82
2023/06/20 07:12:04;;;;;;;9.25;8.30;;;21.60;78.90;;;;;;5038168;28;20630;-83
2023/06/20 07:14:31;;;;;;;8.75;7.95;;;21.60;78.60;;;;;;5021992;28;20198;-80
2023/06/20 07:17:01;;;;;;;9.38;8.48;;;21.50;78.80;;;;;;5055620;28;20518;-81
2023/06/20 07:19:27;;;;;;;8.30;7.45;;;21.60;78.60;;;;;;5021264;28;20235;-82
2023/06/20 07:21:53;;;;;;;9.15;8.23;;;21.60;78.70;;;;;;5038346;28;20159;-82
2023/06/20 07:24:19;;;;;;;8.63;7.75;;;21.60;78.30;;;;;;5037931;28;20158;-81
2023/06/20 07:26:45;;;;;;;8.38;7.13;;;21.70;78.10;;;;;;5055850;28;20154;-80
2023/06/20 07:29:11;;;;;;;8.70;7.80;;;21.70;77.90;;;;;;5055401;28;20220;-84
2023/06/20 07:31:37;;;;;;;8.55;7.75;;;21.60;77.80;;;;;;5037809;28;20568;-83
2023/06/20 07:34:02;;;;;;;9.20;8.30;;;21.70;77.80;;;;;;5037976;28;20169;-82
2023/06/20 07:36:28;;;;;;;7.95;7.20;;;21.80;78.00;;;;;;5037834;28;20224;-83
2023/06/20 07:38:54;;;;;;;9.00;8.10;;;21.70;78.10;;;;;;5055884;28;20211;-81
2023/06/20 07:41:20;;;;;;;8.88;7.97;;;21.80;77.60;;;;;;5037990;28;20165;-83
2023/06/20 07:43:46;;;;;;;8.60;7.80;;;21.70;77.60;;;;;;5020904;28;20166;-82
2023/06/20 07:46:12;;;;;;;8.52;7.72;;;21.60;77.50;;;;;;5055136;28;20161;-83
2023/06/20 07:48:38;;;;;;;9.25;7.93;;;21.70;77.50;;;;;;5037140;28;20217;-83
2023/06/20 07:51:04;;;;;;;8.77;7.88;;;21.70;77.50;;;;;;5053964;28;20527;-80
2023/06/20 07:53:30;;;;;;;8.10;7.30;;;21.70;77.60;;;;;;5020582;28;20178;-83
2023/06/20 07:55:55;;;;;;;8.00;7.20;;;21.60;77.40;;;;;;5054657;28;20189;-81
2023/06/20 07:58:21;;;;;;;8.75;7.88;;;21.70;77.30;;;;;;5037040;28;20159;-81
2023/06/20 08:00:47;;;;;;;8.55;7.75;;;21.70;78.00;;;;;;5037651;28;20224;-82
2023/06/20 08:03:13;;;;;;;8.18;7.13;;;21.70;77.20;;;;;;5020243;28;20219;-82
2023/06/20 08:05:39;;;;;;;7.68;6.95;;;21.70;77.00;;;;;;5037648;28;20158;-81
2023/06/20 08:08:05;;;;;;;8.38;7.57;;;21.70;76.90;;;;;;5036786;28;20670;-81
2023/06/20 08:10:31;;;;;;;8.27;7.43;;;21.80;77.00;;;;;;5020262;28;20228;-83
2023/06/20 08:12:57;;;;;;;8.73;7.82;;;21.80;76.70;;;;;;5036844;28;20166;-84
2023/06/20 08:15:23;;;;;;;8.45;7.65;;;21.80;76.70;;;;;;5019905;28;20201;-85
2023/06/20 08:17:49;;;;;;;8.50;7.45;;;21.80;76.50;;;;;;5020617;28;20212;-83
2023/06/20 08:20:15;;;;;;;8.05;7.25;;;21.80;76.30;;;;;;5036925;28;20223;-82
2023/06/20 08:22:41;;;;;;;8.40;7.28;;;21.90;76.20;;;;;;5020511;28;20178;-83
2023/06/20 08:25:07;;;;;;;8.18;7.38;;;21.90;76.20;;;;;;5054324;28;20277;-84
2023/06/20 08:27:33;;;;;;;8.13;7.32;;;21.90;76.00;;;;;;5054187;28;20162;-81
2023/06/20 08:29:59;;;;;;;8.80;7.85;;;21.90;75.90;;;;;;5054028;28;20165;-84
2023/06/20 08:32:25;;;;;;;8.50;7.70;;;21.90;76.00;;;;;;5054182;28;20635;-83
2023/06/20 08:34:54;;;;;;;8.70;7.80;;;21.90;76.00;;;;;;5036596;28;20313;-83
2023/06/20 08:37:21;;;;;;;8.50;7.60;;;21.90;75.80;;;;;;5035498;28;20190;-82
2023/06/20 08:39:48;;;;;;;8.38;7.57;;;21.90;75.80;;;;;;5037261;28;20524;-81
2023/06/20 08:42:13;;;;;;;8.20;7.40;;;22.00;75.60;;;;;;5036001;28;20643;-84
2023/06/20 08:44:39;;;;;;;7.65;6.95;;;22.00;75.40;;;;;;5036096;28;20273;-82
2023/06/20 08:47:06;;;;;;;8.30;7.50;;;22.00;74.80;;;;;;5053357;28;20248;-81
2023/06/20 08:49:31;;;;;;;8.50;7.57;;;22.10;74.80;;;;;;5053689;28;20162;-84
2023/06/20 08:51:59;;;;;;;7.80;7.10;;;22.10;74.80;;;;;;5019368;28;20698;-81
2023/06/20 08:54:30;;;;;;;8.25;7.45;;;22.00;74.70;;;;;;5019228;28;20206;-84
2023/06/20 08:56:56;;;;;;;8.07;7.32;;;22.00;74.80;;;;;;5002842;28;20186;-84
2023/06/20 08:59:22;;;;;;;8.65;7.28;;;22.10;74.60;;;;;;5036483;28;20168;-84
2023/06/20 09:01:48;;;;;;;8.80;8.00;;;22.10;74.50;;;;;;5053430;28;20230;-81
2023/06/20 09:04:14;;;;;;;8.50;7.28;;;22.10;74.90;;;;;;5054178;28;20620;-82
2023/06/20 09:06:40;;;;;;;7.95;7.18;;;22.00;75.00;;;;;;5019664;28;20203;-81
2023/06/20 09:09:14;;;;;;;7.70;6.97;;;22.00;75.00;;;;;;5035702;28;20166;-82
2023/06/20 09:11:45;;;;;;;8.05;7.25;;;22.10;74.70;;;;;;5035670;28;20153;-80
2023/06/20 09:14:11;;;;;;;8.20;7.40;;;22.10;74.80;;;;;;5035338;28;20170;-82
2023/06/20 09:16:36;;;;;;;7.78;7.07;;;22.10;74.90;;;;;;5035486;28;20158;-83
2023/06/20 09:19:03;;;;;;;7.57;6.88;;;22.10;75.00;;;;;;5035868;28;20162;-83
2023/06/20 09:21:28;;;;;;;8.20;7.40;;;22.10;74.90;;;;;;5053317;28;20201;-84
2023/06/20 09:24:02;;;;;;;8.10;7.40;;;22.00;74.90;;;;;;5035692;28;20640;-82
2023/06/20 09:26:28;;;;;;;7.55;6.78;;;22.00;74.90;;;;;;5035741;28;20184;-84
2023/06/20 09:29:06;;;;;;;7.93;7.13;;;22.10;74.60;;;;;;5019121;28;20212;-83
2023/06/20 09:31:44;;;;;;;8.20;7.40;;;22.00;74.50;;;;;;5019023;28;20181;-82
2023/06/20 09:34:14;;;;;;;8.25;7.45;;;22.00;74.70;;;;;;5018768;28;20216;-83
2023/06/20 09:36:40;;;;;;;7.78;6.97;;;22.00;74.80;;;;;;5035477;28;20640;-85
2023/06/20 09:39:10;;;;;;;8.07;7.28;;;22.00;74.70;;;;;;5053375;28;20202;-83
2023/06/20 09:41:36;;;;;;;7.80;7.10;;;22.00;74.60;;;;;;5019352;28;20165;-82
2023/06/20 09:44:02;;;;;;;7.65;6.95;;;22.00;74.80;;;;;;5052953;28;20161;-84
2023/06/20 09:46:28;;;;;;;7.40;6.47;;;22.00;74.80;;;;;;5052807;28;20154;-83
2023/06/20 09:48:54;;;;;;;7.57;6.75;;;22.00;75.00;;;;;;5035090;28;20263;-82
2023/06/20 09:51:20;;;;;;;7.43;6.72;;;22.00;74.40;;;;;;5053070;28;20158;-83
2023/06/20 09:53:50;;;;;;;8.25;7.45;;;22.10;74.30;;;;;;5018425;28;20174;-84
2023/06/20 09:56:16;;;;;;;8.27;7.22;;;22.10;74.30;;;;;;5019263;28;20201;-84
2023/06/20 09:58:44;;;;;;;7.90;7.10;;;22.10;74.10;;;;;;5035129;28;20154;-83
2023/06/20 10:01:13;;;;;;;8.02;7.28;;;22.10;74.00;;;;;;5019087;28;20173;-83
2023/06/20 10:03:39;;;;;;;9.05;7.15;;;22.10;74.00;;;;;;5035528;28;20177;-83
2023/06/20 10:06:05;;;;;;;9.75;7.53;;;22.20;73.90;;;;;;5052987;28;20702;-83
2023/06/20 10:08:31;;;;;;;7.95;7.15;;;22.20;73.80;;;;;;5028803;28;20185;-86
2023/06/20 10:10:57;;;;;;;8.00;7.20;;;22.20;73.80;;;;;;5020126;28;20174;-85
2023/06/20 10:13:24;;;;;;;9.52;7.43;;;22.20;73.40;;;;;;5053645;28;20166;-87
2023/06/20 10:15:50;;;;;;;9.10;7.20;;;22.20;73.40;;;;;;5039151;28;20182;-85
2023/06/20 10:18:36;;;;;;;8.48;7.07;;;22.20;73.40;;;;;;5039138;28;20166;-83
2023/06/20 10:21:05;;;;;;;7.90;7.10;;;22.20;73.40;;;;;;5038991;28;20161;-84
2023/06/20 10:23:32;;;;;;;8.57;7.65;;;22.30;73.30;;;;;;5022511;28;20170;-85
2023/06/20 10:26:00;;;;;;;8.30;7.50;;;22.30;73.20;;;;;;5038714;28;20700;-86
2023/06/20 10:28:26;;;;;;;7.80;7.00;;;22.30;73.00;;;;;;5022670;28;20181;-84
2023/06/20 10:30:57;;;;;;;8.38;7.57;;;22.30;72.90;;;;;;5023133;28;20181;-84
2023/06/20 10:33:31;;;;;;;9.18;8.27;;;22.30;73.20;;;;;;5022711;28;20169;-84
2023/06/20 10:36:07;;;;;;;8.60;7.80;;;22.30;72.90;;;;;;5040440;28;20198;-83
2023/06/20 10:38:39;;;;;;;8.25;7.45;;;22.30;72.80;;;;;;5022005;28;20177;-85
2023/06/20 10:41:26;;;;;;;8.00;7.30;;;22.30;72.80;;;;;;5038788;28;20170;-84
2023/06/20 10:43:54;;;;;;;8.70;7.90;;;22.30;73.20;;;;;;5039044;28;20157;-86
2023/06/20 10:46:22;;;;;;;8.02;7.22;;;22.30;72.40;;;;;;5038764;28;20170;-85
2023/06/20 10:48:48;;;;;;;8.45;7.65;;;22.30;73.20;;;;;;5038569;28;20688;-84
2023/06/20 10:51:14;;;;;;;8.15;7.35;;;22.50;72.00;;;;;;5038674;28;20165;-85
2023/06/20 10:53:40;;;;;;;8.68;7.88;;;22.50;71.80;;;;;;5038465;28;20158;-86
2023/06/20 10:56:06;;;;;;;7.75;7.05;;;22.50;71.60;;;;;;5038277;28;20292;-83
2023/06/20 10:58:32;;;;;;;8.50;7.70;;;22.50;71.60;;;;;;5056083;28;20150;-86
2023/06/20 11:00:58;;;;;;;9.05;8.15;;;22.40;71.80;;;;;;5038544;28;20152;-84
2023/06/20 11:03:24;;;;;;;8.98;8.07;;;22.40;71.80;;;;;;5056430;28;20692;-84
2023/06/20 11:05:50;;;;;;;7.85;7.07;;;22.50;71.70;;;;;;5038511;28;20174;-83
2023/06/20 11:08:25;;;;;;;8.02;7.30;;;22.50;71.50;;;;;;5056169;28;20154;-85
2023/06/20 11:10:51;;;;;;;8.00;7.20;;;22.50;71.10;;;;;;5022294;28;20170;-86
2023/06/20 11:13:17;;;;;;;8.38;7.57;;;22.60;71.20;;;;;;5038347;28;20632;-83
2023/06/20 11:15:43;;;;;;;8.82;7.82;;;22.50;71.10;;;;;;5038201;28;20223;-84
2023/06/20 11:18:09;;;;;;;9.10;8.25;;;22.50;71.00;;;;;;5021725;28;20253;-83
2023/06/20 11:20:37;;;;;;;8.43;7.63;;;22.50;71.20;;;;;;5038033;28;20245;-84
2023/06/20 11:23:04;;;;;;;9.10;8.20;;;22.60;71.30;;;;;;5038079;28;20146;-82
2023/06/20 11:25:35;;;;;;;8.93;8.02;;;22.60;70.80;;;;;;5021024;28;20185;-84
2023/06/20 11:28:06;;;;;;;9.05;8.20;;;22.70;70.90;;;;;;5021288;28;20236;-84
2023/06/20 11:30:33;;;;;;;8.25;7.45;;;22.70;70.70;;;;;;5038548;28;20160;-84
2023/06/20 11:33:03;;;;;;;9.07;8.18;;;22.60;70.90;;;;;;5038101;28;20158;-84
2023/06/20 11:35:54;;;;;;;9.15;8.27;;;22.60;71.00;;;;;;5037266;28;20182;-85
2023/06/20 11:38:24;;;;;;;9.18;8.27;;;22.60;71.10;;;;;;5037562;28;20207;-83
2023/06/20 11:41:06;;;;;;;9.05;8.15;;;22.60;71.40;;;;;;5020666;28;20163;-83
2023/06/20 11:43:40;;;;;;;9.23;8.43;;;22.50;71.40;;;;;;5037164;28;20177;-83
2023/06/20 11:46:06;;;;;;;9.13;8.23;;;22.50;71.40;;;;;;5020926;28;20182;-83
2023/06/20 11:48:32;;;;;;;8.55;7.75;;;22.50;71.60;;;;;;5054724;28;20372;-82
2023/06/20 11:51:01;;;;;;;9.15;8.25;;;22.50;71.80;;;;;;5037513;28;20191;-83
2023/06/20 11:53:29;;;;;;;9.18;8.27;;;22.50;71.80;;;;;;5021065;28;20177;-82
2023/06/20 11:55:57;;;;;;;9.20;8.30;;;22.50;72.00;;;;;;5036725;28;20556;-84
2023/06/20 11:58:23;;;;;;;9.30;8.40;;;22.40;71.80;;;;;;5020231;28;20166;-84
2023/06/20 12:01:22;;;;;;;9.27;8.48;;;22.50;71.90;;;;;;5053996;28;20154;-83
2023/06/20 12:04:06;;;;;;;9.63;8.63;;;22.50;72.00;;;;;;4993330;28;20188;-83
2023/06/20 12:06:34;;;;;;;9.38;8.48;;;22.50;72.10;;;;;;4961109;28;20171;-83
2023/06/20 12:09:04;;;;;;;9.63;8.65;;;22.50;72.20;;;;;;4977791;28;20219;-83
2023/06/20 12:11:30;;;;;;;10.18;9.18;;;22.50;72.00;;;;;;4961311;28;20207;-84
2023/06/20 12:13:57;;;;;;;9.90;8.90;;;22.50;71.90;;;;;;4977096;28;20184;-82
2023/06/20 12:16:23;;;;;;;9.70;8.70;;;22.40;71.80;;;;;;4993231;28;20188;-84
2023/06/20 12:18:51;;;;;;;9.93;8.98;;;22.50;71.80;;;;;;4977014;28;20583;-83
2023/06/20 12:21:17;;;;;;;10.07;8.98;;;22.50;71.60;;;;;;4977206;28;20160;-84
2023/06/20 12:23:43;;;;;;;9.55;8.55;;;22.40;71.50;;;;;;4962044;28;20262;-83
2023/06/20 12:26:09;;;;;;;8.98;8.18;;;22.50;71.50;;;;;;4977718;28;20251;-82
2023/06/20 12:28:36;;;;;;;10.27;9.27;;;22.50;71.50;;;;;;4978165;28;20263;-82
2023/06/20 12:31:04;;;;;;;9.60;8.43;;;22.50;71.40;;;;;;4978982;28;20152;-83
2023/06/20 12:33:30;;;;;;;9.05;8.25;;;22.60;71.50;;;;;;4979798;28;20164;-83
2023/06/20 12:35:56;;;;;;;9.95;8.95;;;22.60;71.50;;;;;;5020651;28;20201;-83
2023/06/20 12:38:22;;;;;;;9.88;8.88;;;22.60;71.50;;;;;;5038070;28;20221;-83
2023/06/20 12:40:49;;;;;;;10.27;9.27;;;22.60;71.50;;;;;;5039912;28;20253;-83